createdAt,value
2018-09-20T00:00:47.636Z,78.44
2018-09-20T00:01:47.621Z,78.44
2018-09-20T00:02:47.607Z,78.53
2018-09-20T00:03:47.589Z,78.83
2018-09-20T00:04:47.574Z,78.30
2018-09-20T00:05:47.561Z,79.11
2018-09-20T00:06:47.545Z,79.17
2018-09-20T00:07:47.532Z,79.36
2018-09-20T00:08:47.511Z,79.27
2018-09-20T00:09:47.495Z,79.36
2018-09-20T00:10:47.486Z,79.65
2018-09-20T00:11:47.474Z,79.65
2018-09-20T00:12:47.450Z,79.46
2018-09-20T00:13:47.433Z,79.65
2018-09-20T00:14:47.416Z,79.36
2018-09-20T00:15:47.408Z,79.46
2018-09-20T00:16:47.387Z,79.75
2018-09-20T00:17:47.371Z,79.36
2018-09-20T00:18:47.356Z,79.65
2018-09-20T00:19:47.341Z,79.55
2018-09-20T00:20:47.325Z,79.55
2018-09-20T00:21:47.316Z,80.42
2018-09-20T00:22:47.295Z,80.04
2018-09-20T00:23:47.277Z,80.13
2018-09-20T00:24:47.263Z,80.32
2018-09-20T00:25:47.256Z,79.84
2018-09-20T00:26:47.236Z,80.32
2018-09-20T00:27:47.220Z,80.22
2018-09-20T00:28:47.201Z,80.61
2018-09-20T00:29:47.185Z,80.71
2018-09-20T00:30:47.168Z,80.71
2018-09-20T00:31:47.157Z,80.90
2018-09-20T00:32:47.139Z,80.22
2018-09-20T00:33:47.131Z,80.22
2018-09-20T00:34:47.115Z,80.71
2018-09-20T00:35:47.095Z,80.32
2018-09-20T00:36:47.077Z,80.80
2018-09-20T00:37:47.060Z,81.28
2018-09-20T00:38:47.044Z,81.19
2018-09-20T00:39:47.028Z,81.09
2018-09-20T00:40:47.015Z,81.28
2018-09-20T00:41:46.996Z,80.61
2018-09-20T00:42:46.982Z,80.61
2018-09-20T00:43:46.967Z,81.19
2018-09-20T00:44:46.953Z,80.80
2018-09-20T00:45:46.933Z,80.99
2018-09-20T00:46:46.916Z,81.19
2018-09-20T00:47:46.905Z,81.19
2018-09-20T00:48:46.890Z,81.76
2018-09-20T00:49:46.874Z,81.72
2018-09-20T00:50:46.859Z,81.63
2018-09-20T00:51:46.839Z,81.82
2018-09-20T00:52:46.828Z,81.53
2018-09-20T00:53:46.809Z,81.43
2018-09-20T00:54:46.792Z,81.63
2018-09-20T00:55:46.776Z,81.53
2018-09-20T00:56:46.762Z,81.53
2018-09-20T00:57:46.744Z,81.92
2018-09-20T00:58:46.733Z,81.82
2018-09-20T00:59:46.714Z,82.01
2018-09-20T01:00:46.698Z,81.72
2018-09-20T01:01:46.690Z,81.92
2018-09-20T01:02:46.666Z,82.40
2018-09-20T01:03:46.652Z,81.82
2018-09-20T01:04:46.644Z,81.82
2018-09-20T01:05:46.618Z,82.01
2018-09-20T01:06:46.603Z,81.92
2018-09-20T01:07:46.587Z,81.82
2018-09-20T01:08:46.574Z,81.92
2018-09-20T01:09:46.554Z,82.30
2018-09-20T01:10:46.539Z,82.49
2018-09-20T01:11:46.526Z,82.10
2018-09-20T01:12:46.514Z,82.30
2018-09-20T01:13:46.493Z,81.78
2018-09-20T01:14:46.477Z,83.03
2018-09-20T01:15:46.465Z,83.03
2018-09-20T01:16:46.449Z,83.12
2018-09-20T01:17:46.431Z,83.03
2018-09-20T01:18:46.415Z,83.03
2018-09-20T01:19:46.402Z,83.22
2018-09-20T01:20:46.383Z,83.03
2018-09-20T01:21:46.367Z,83.51
2018-09-20T01:22:46.351Z,83.31
2018-09-20T01:23:46.343Z,83.12
2018-09-20T01:24:46.328Z,83.60
2018-09-20T01:25:46.302Z,83.22
2018-09-20T01:26:46.287Z,83.41
2018-09-20T01:27:46.275Z,83.60
2018-09-20T01:28:46.273Z,83.03
2018-09-20T01:29:46.240Z,83.51
2018-09-20T01:30:46.223Z,83.51
2018-09-20T01:31:46.209Z,83.60
2018-09-20T01:32:46.191Z,83.70
2018-09-20T01:33:46.178Z,84.08
2018-09-20T01:34:46.161Z,84.47
2018-09-20T01:35:46.143Z,84.18
2018-09-20T01:36:46.131Z,84.47
2018-09-20T01:37:46.115Z,84.47
2018-09-20T01:38:46.097Z,84.47
2018-09-20T01:39:46.085Z,84.37
2018-09-20T01:40:46.065Z,83.98
2018-09-20T01:41:46.049Z,84.08
2018-09-20T01:42:46.034Z,83.98
2018-09-20T01:43:46.020Z,84.37
2018-09-20T01:44:46.001Z,84.18
2018-09-20T01:45:45.997Z,83.70
2018-09-20T01:46:45.969Z,84.08
2018-09-20T01:47:45.953Z,83.98
2018-09-20T01:48:45.939Z,84.08
2018-09-20T01:49:45.922Z,84.18
2018-09-20T01:50:45.907Z,84.18
2018-09-20T01:51:45.895Z,84.08
2018-09-20T01:52:45.877Z,84.56
2018-09-20T01:53:45.861Z,83.98
2018-09-20T01:54:45.842Z,84.08
2018-09-20T01:55:45.826Z,84.18
2018-09-20T01:56:45.814Z,84.08
2018-09-20T01:57:45.794Z,84.18
2018-09-20T01:58:45.777Z,84.27
2018-09-20T01:59:45.763Z,83.89
2018-09-20T02:00:45.746Z,84.08
2018-09-20T02:01:45.741Z,83.80
2018-09-20T02:02:45.716Z,84.47
2018-09-20T02:03:45.696Z,83.80
2018-09-20T02:04:45.685Z,83.89
2018-09-20T02:05:45.665Z,84.66
2018-09-20T02:06:45.650Z,84.08
2018-09-20T02:07:45.634Z,84.18
2018-09-20T02:08:45.620Z,84.18
2018-09-20T02:09:45.601Z,84.66
2018-09-20T02:10:45.586Z,84.47
2018-09-20T02:11:45.568Z,84.95
2018-09-20T02:12:45.553Z,84.85
2018-09-20T02:13:45.537Z,84.95
2018-09-20T02:14:45.521Z,84.85
2018-09-20T02:15:45.505Z,84.95
2018-09-20T02:16:45.491Z,85.04
2018-09-20T02:17:45.475Z,84.85
2018-09-20T02:18:45.458Z,84.75
2018-09-20T02:19:45.441Z,85.04
2018-09-20T02:20:45.427Z,84.75
2018-09-20T02:21:45.410Z,84.75
2018-09-20T02:22:45.398Z,84.66
2018-09-20T02:23:45.378Z,85.33
2018-09-20T02:24:45.375Z,85.14
2018-09-20T02:25:45.344Z,85.24
2018-09-20T02:26:45.329Z,85.24
2018-09-20T02:27:45.313Z,85.04
2018-09-20T02:28:45.297Z,85.33
2018-09-20T02:29:45.282Z,85.33
2018-09-20T02:30:45.263Z,85.33
2018-09-20T02:31:45.248Z,85.33
2018-09-20T02:32:45.233Z,85.24
2018-09-20T02:33:45.216Z,84.85
2018-09-20T02:34:45.201Z,85.24
2018-09-20T02:35:45.188Z,84.75
2018-09-20T02:36:45.168Z,85.33
2018-09-20T02:37:45.160Z,84.95
2018-09-20T02:38:45.145Z,85.24
2018-09-20T02:39:45.119Z,85.24
2018-09-20T02:40:45.104Z,85.14
2018-09-20T02:41:45.092Z,85.33
2018-09-20T02:42:45.079Z,85.91
2018-09-20T02:43:45.054Z,85.71
2018-09-20T02:44:45.040Z,85.91
2018-09-20T02:45:45.022Z,85.91
2018-09-20T02:46:45.006Z,85.42
2018-09-20T02:47:44.993Z,85.24
2018-09-20T02:48:44.973Z,85.86
2018-09-20T02:49:44.968Z,85.71
2018-09-20T02:50:44.944Z,85.86
2018-09-20T02:51:44.925Z,86.25
2018-09-20T02:52:44.918Z,86.19
2018-09-20T02:53:44.897Z,85.86
2018-09-20T02:54:44.878Z,86.15
2018-09-20T02:55:44.860Z,86.25
2018-09-20T02:56:44.845Z,86.10
2018-09-20T02:57:44.828Z,85.86
2018-09-20T02:58:44.843Z,86.25
2018-09-20T02:59:44.795Z,86.15
2018-09-20T03:00:44.780Z,86.15
2018-09-20T03:01:44.767Z,86.29
2018-09-20T03:02:44.748Z,86.68
2018-09-20T03:03:44.735Z,86.63
2018-09-20T03:04:44.717Z,86.44
2018-09-20T03:05:44.703Z,86.92
2018-09-20T03:06:44.683Z,86.63
2018-09-20T03:07:44.666Z,86.82
2018-09-20T03:08:44.653Z,86.54
2018-09-20T03:09:44.633Z,87.21
2018-09-20T03:10:44.620Z,87.49
2018-09-20T03:11:44.601Z,87.11
2018-09-20T03:12:44.936Z,87.68
2018-09-20T03:13:44.568Z,87.11
2018-09-20T03:14:44.555Z,87.68
2018-09-20T03:15:44.539Z,87.40
2018-09-20T03:16:44.525Z,87.98
2018-09-20T03:17:44.504Z,88.26
2018-09-20T03:18:44.493Z,88.26
2018-09-20T03:19:44.472Z,87.98
2018-09-20T03:20:44.454Z,88.45
2018-09-20T03:21:44.437Z,88.26
2018-09-20T03:22:44.422Z,87.78
2018-09-20T03:23:44.416Z,88.17
2018-09-20T03:24:44.392Z,88.45
2018-09-20T03:25:44.374Z,88.55
2018-09-20T03:26:44.355Z,87.59
2018-09-20T03:27:44.339Z,88.26
2018-09-20T03:28:44.324Z,88.17
2018-09-20T03:29:44.310Z,88.17
2018-09-20T03:30:44.342Z,88.84
2018-09-20T03:31:44.276Z,88.26
2018-09-20T03:32:44.261Z,88.65
2018-09-20T03:33:44.251Z,88.26
2018-09-20T03:34:44.228Z,88.65
2018-09-20T03:35:44.217Z,88.35
2018-09-20T03:36:44.197Z,88.93
2018-09-20T03:37:44.177Z,89.12
2018-09-20T03:38:44.164Z,89.03
2018-09-20T03:39:44.146Z,89.12
2018-09-20T03:40:44.136Z,89.12
2018-09-20T03:41:44.114Z,88.74
2018-09-20T03:42:44.102Z,89.32
2018-09-20T03:43:44.082Z,89.12
2018-09-20T03:44:44.064Z,89.32
2018-09-20T03:45:44.047Z,89.51
2018-09-20T03:46:44.034Z,89.51
2018-09-20T03:47:44.015Z,89.51
2018-09-20T03:48:43.999Z,89.32
2018-09-20T03:49:43.983Z,88.74
2018-09-20T03:50:43.967Z,89.12
2018-09-20T03:51:43.950Z,89.99
2018-09-20T03:52:43.936Z,88.93
2018-09-20T03:53:43.917Z,89.03
2018-09-20T03:54:43.899Z,89.41
2018-09-20T03:55:43.885Z,89.56
2018-09-20T03:56:43.868Z,89.79
2018-09-20T03:57:43.852Z,89.85
2018-09-20T03:58:43.835Z,89.94
2018-09-20T03:59:43.818Z,90.42
2018-09-20T04:00:43.809Z,89.75
2018-09-20T04:01:43.787Z,90.14
2018-09-20T04:02:43.771Z,90.52
2018-09-20T04:03:43.755Z,90.42
2018-09-20T04:04:43.738Z,90.71
2018-09-20T04:05:43.722Z,90.37
2018-09-20T04:06:43.708Z,89.85
2018-09-20T04:07:43.691Z,89.85
2018-09-20T04:08:43.674Z,89.94
2018-09-20T04:09:43.696Z,89.75
2018-09-20T04:10:43.652Z,90.14
2018-09-20T04:11:43.626Z,90.14
2018-09-20T04:12:43.610Z,90.42
2018-09-20T04:13:43.596Z,89.94
2018-09-20T04:14:43.576Z,89.94
2018-09-20T04:15:43.557Z,90.04
2018-09-20T04:16:43.542Z,90.18
2018-09-20T04:17:43.530Z,89.79
2018-09-20T04:18:43.524Z,89.47
2018-09-20T04:19:43.494Z,89.37
2018-09-20T04:20:43.482Z,89.94
2018-09-20T04:21:43.463Z,90.23
2018-09-20T04:22:43.444Z,90.71
2018-09-20T04:23:43.426Z,90.52
2018-09-20T04:24:43.418Z,90.42
2018-09-20T04:25:43.393Z,89.75
2018-09-20T04:26:43.378Z,90.04
2018-09-20T04:27:43.359Z,89.85
2018-09-20T04:28:43.343Z,90.23
2018-09-20T04:29:43.326Z,90.14
2018-09-20T04:30:43.316Z,90.71
2018-09-20T04:31:43.313Z,90.23
2018-09-20T04:32:43.287Z,90.14
2018-09-20T04:33:43.259Z,90.71
2018-09-20T04:34:43.252Z,90.71
2018-09-20T04:35:43.327Z,90.90
2018-09-20T04:36:43.211Z,91.19
2018-09-20T04:37:43.195Z,90.61
2018-09-20T04:38:43.183Z,91.09
2018-09-20T04:39:43.161Z,91.19
2018-09-20T04:40:43.146Z,91.19
2018-09-20T04:41:43.131Z,91.19
2018-09-20T04:42:43.115Z,90.90
2018-09-20T04:43:43.097Z,91.28
2018-09-20T04:44:43.081Z,90.81
2018-09-20T04:45:43.063Z,91.19
2018-09-20T04:46:43.047Z,91.38
2018-09-20T04:47:43.031Z,91.09
2018-09-20T04:48:43.012Z,91.19
2018-09-20T04:49:42.997Z,91.00
2018-09-20T04:50:42.980Z,91.19
2018-09-20T04:51:42.964Z,91.38
2018-09-20T04:52:42.948Z,91.00
2018-09-20T04:53:42.935Z,91.19
2018-09-20T04:54:42.914Z,91.38
2018-09-20T04:55:42.900Z,91.48
2018-09-20T04:56:42.886Z,91.00
2018-09-20T04:57:42.867Z,91.00
2018-09-20T04:58:42.849Z,91.67
2018-09-20T04:59:42.831Z,92.01
2018-09-20T05:00:42.813Z,92.77
2018-09-20T05:01:42.800Z,92.49
2018-09-20T05:02:42.780Z,92.49
2018-09-20T05:03:42.765Z,92.87
2018-09-20T05:04:42.748Z,92.77
2018-09-20T05:05:42.732Z,93.06
2018-09-20T05:06:42.713Z,92.63
2018-09-20T05:07:42.704Z,92.82
2018-09-20T05:08:42.681Z,92.91
2018-09-20T05:09:42.668Z,92.72
2018-09-20T05:10:42.649Z,92.63
2018-09-20T05:11:42.633Z,92.63
2018-09-20T05:12:42.621Z,92.54
2018-09-20T05:13:42.623Z,93.11
2018-09-20T05:14:42.582Z,93.49
2018-09-20T05:15:42.565Z,93.11
2018-09-20T05:16:42.551Z,92.72
2018-09-20T05:17:42.547Z,92.54
2018-09-20T05:18:42.517Z,92.44
2018-09-20T05:19:42.500Z,92.34
2018-09-20T05:20:42.482Z,92.05
2018-09-20T05:21:42.463Z,91.77
2018-09-20T05:22:42.447Z,91.67
2018-09-20T05:23:42.431Z,92.15
2018-09-20T05:24:42.416Z,92.82
2018-09-20T05:25:42.400Z,93.30
2018-09-20T05:26:42.385Z,92.58
2018-09-20T05:27:42.365Z,93.30
2018-09-20T05:28:42.352Z,93.54
2018-09-20T05:29:42.331Z,92.72
2018-09-20T05:30:42.314Z,92.82
2018-09-20T05:31:42.297Z,92.72
2018-09-20T05:32:42.290Z,93.21
2018-09-20T05:33:42.265Z,93.01
2018-09-20T05:34:42.249Z,93.21
2018-09-20T05:35:42.234Z,93.11
2018-09-20T05:36:42.215Z,93.21
2018-09-20T05:37:42.202Z,93.21
2018-09-20T05:38:42.182Z,93.35
2018-09-20T05:39:42.168Z,93.40
2018-09-20T05:40:42.149Z,93.30
2018-09-20T05:41:42.133Z,92.91
2018-09-20T05:42:42.115Z,93.30
2018-09-20T05:43:42.104Z,93.68
2018-09-20T05:44:42.080Z,93.30
2018-09-20T05:45:42.064Z,93.21
2018-09-20T05:46:42.045Z,92.82
2018-09-20T05:47:42.032Z,93.97
2018-09-20T05:48:42.016Z,93.21
2018-09-20T05:49:41.996Z,93.01
2018-09-20T05:53:27.241Z,93.59
2018-09-20T05:54:27.225Z,93.49
2018-09-20T05:55:27.211Z,93.68
2018-09-20T05:56:27.192Z,94.07
2018-09-20T05:57:27.174Z,94.45
2018-09-20T05:58:27.159Z,93.97
2018-09-20T05:59:27.144Z,94.35
2018-09-20T06:00:27.128Z,93.68
2018-09-20T06:01:27.116Z,94.45
2018-09-20T06:02:27.092Z,93.78
2018-09-20T06:03:27.074Z,93.97
2018-09-20T06:04:27.059Z,94.07
2018-09-20T06:05:27.069Z,94.07
2018-09-20T06:06:27.030Z,93.49
2018-09-20T06:07:27.006Z,93.68
2018-09-20T06:08:26.992Z,93.68
2018-09-20T06:09:26.973Z,93.59
2018-09-20T06:10:26.958Z,93.97
2018-09-20T06:11:26.944Z,93.78
2018-09-20T06:12:26.929Z,93.21
2018-09-20T06:13:26.909Z,93.01
2018-09-20T06:14:26.893Z,93.30
2018-09-20T06:15:26.877Z,92.91
2018-09-20T06:16:26.874Z,92.91
2018-09-20T06:17:26.846Z,93.49
2018-09-20T06:18:26.828Z,93.11
2018-09-20T06:19:26.809Z,92.72
2018-09-20T06:20:26.793Z,93.21
2018-09-20T06:21:26.779Z,93.11
2018-09-20T06:22:26.760Z,92.82
2018-09-20T06:23:26.744Z,92.54
2018-09-20T06:24:26.726Z,92.91
2018-09-20T06:25:26.710Z,92.96
2018-09-20T06:26:26.695Z,92.68
2018-09-20T06:27:26.678Z,92.58
2018-09-20T06:28:26.662Z,92.68
2018-09-20T06:29:26.644Z,92.19
2018-09-20T06:30:26.627Z,92.00
2018-09-20T06:31:26.613Z,92.96
2018-09-20T06:32:26.598Z,92.96
2018-09-20T06:33:26.581Z,92.48
2018-09-20T06:34:26.565Z,92.10
2018-09-20T06:35:26.544Z,92.29
2018-09-20T06:36:26.531Z,92.00
2018-09-20T06:37:26.516Z,92.77
2018-09-20T06:38:26.503Z,92.86
2018-09-20T06:39:26.478Z,91.72
2018-09-20T06:40:26.461Z,91.42
2018-09-20T06:41:26.444Z,91.05
2018-09-20T06:42:26.433Z,91.33
2018-09-20T06:43:26.416Z,91.57
2018-09-20T06:44:26.396Z,90.90
2018-09-20T06:45:26.380Z,91.47
2018-09-20T06:46:26.363Z,90.90
2018-09-20T06:47:26.347Z,90.42
2018-09-20T06:48:26.330Z,91.57
2018-09-20T06:49:26.313Z,91.09
2018-09-20T06:50:26.417Z,90.99
2018-09-20T06:51:26.282Z,90.42
2018-09-20T06:52:26.263Z,90.22
2018-09-20T06:53:26.255Z,90.52
2018-09-20T06:54:26.237Z,89.50
2018-09-20T06:55:26.216Z,90.08
2018-09-20T06:56:26.231Z,89.12
2018-09-20T06:57:26.187Z,89.69
2018-09-20T06:58:26.181Z,89.31
2018-09-20T06:59:26.147Z,88.93
2018-09-20T07:00:26.134Z,89.02
2018-09-20T07:01:26.119Z,88.83
2018-09-20T07:02:26.104Z,88.83
2018-09-20T07:03:26.163Z,88.54
2018-09-20T07:04:26.067Z,88.06
2018-09-20T07:05:26.057Z,88.78
2018-09-20T07:06:26.035Z,88.49
2018-09-20T07:07:26.019Z,88.01
2018-09-20T07:08:26.000Z,87.05
2018-09-20T07:09:25.987Z,87.62
2018-09-20T07:10:25.970Z,86.95
2018-09-20T07:11:25.958Z,87.05
2018-09-20T07:12:25.946Z,87.57
2018-09-20T07:13:25.922Z,87.29
2018-09-20T07:14:25.907Z,86.80
2018-09-20T07:15:25.893Z,86.32
2018-09-20T07:16:25.879Z,85.65
2018-09-20T07:17:25.856Z,86.22
2018-09-20T07:18:25.838Z,86.13
2018-09-20T07:19:25.831Z,86.32
2018-09-20T07:20:25.809Z,86.32
2018-09-20T07:21:25.793Z,85.36
2018-09-20T07:22:25.775Z,85.36
2018-09-20T07:23:25.758Z,85.17
2018-09-20T07:24:25.742Z,84.21
2018-09-20T07:25:25.750Z,84.50
2018-09-20T07:26:25.715Z,83.77
2018-09-20T07:27:25.695Z,83.96
2018-09-20T07:28:25.681Z,84.16
2018-09-20T07:29:25.670Z,84.16
2018-09-20T07:30:25.648Z,83.86
2018-09-20T07:31:25.634Z,83.48
2018-09-20T07:32:25.613Z,83.86
2018-09-20T07:33:25.596Z,83.77
2018-09-20T07:34:25.583Z,83.58
2018-09-20T07:35:25.668Z,83.81
2018-09-20T07:36:25.555Z,82.94
2018-09-20T07:37:25.534Z,82.94
2018-09-20T07:38:25.518Z,82.56
2018-09-20T07:39:25.502Z,82.46
2018-09-20T07:40:25.486Z,82.56
2018-09-20T07:41:25.478Z,81.40
2018-09-20T07:42:25.460Z,81.12
2018-09-20T07:43:25.462Z,80.92
2018-09-20T07:44:25.425Z,81.54
2018-09-20T07:45:25.409Z,80.77
2018-09-20T07:46:25.393Z,80.19
2018-09-20T07:47:25.377Z,80.48
2018-09-20T07:48:25.361Z,80.48
2018-09-20T07:49:25.346Z,80.19
2018-09-20T07:50:25.329Z,80.68
2018-09-20T07:51:25.317Z,80.68
2018-09-20T07:52:25.299Z,80.71
2018-09-20T07:53:25.284Z,79.56
2018-09-20T07:54:25.268Z,78.88
2018-09-20T07:55:25.250Z,79.17
2018-09-20T07:56:25.233Z,79.75
2018-09-20T07:57:25.219Z,79.56
2018-09-20T07:58:25.207Z,78.69
2018-09-20T07:59:25.190Z,79.08
2018-09-20T08:00:25.172Z,78.98
2018-09-20T08:01:25.213Z,78.11
2018-09-20T08:02:25.143Z,77.83
2018-09-20T08:03:25.132Z,78.02
2018-09-20T08:04:25.110Z,78.59
2018-09-20T08:05:25.098Z,78.69
2018-09-20T08:06:25.082Z,77.83
2018-09-20T08:07:25.062Z,78.02
2018-09-20T08:08:25.049Z,78.02
2018-09-20T08:09:25.037Z,76.96
2018-09-20T08:10:25.020Z,77.25
2018-09-20T08:11:25.016Z,77.15
2018-09-20T08:12:24.985Z,77.53
2018-09-20T08:13:24.972Z,78.59
2018-09-20T08:14:24.961Z,78.79
2018-09-20T08:15:24.942Z,78.59
2018-09-20T08:16:24.925Z,78.79
2018-09-20T08:17:24.917Z,78.98
2018-09-20T08:18:24.895Z,78.50
2018-09-20T08:19:24.886Z,78.31
2018-09-20T08:20:24.865Z,78.69
2018-09-20T08:21:24.897Z,78.69
2018-09-20T08:22:24.836Z,78.02
2018-09-20T08:23:24.814Z,77.83
2018-09-20T08:24:24.805Z,78.21
2018-09-20T08:25:24.790Z,77.15
2018-09-20T08:26:24.770Z,77.06
2018-09-20T08:27:24.752Z,76.86
2018-09-20T08:28:24.738Z,77.34
2018-09-20T08:29:24.715Z,77.34
2018-09-20T08:30:24.710Z,77.73
2018-09-20T08:31:24.692Z,77.92
2018-09-20T08:32:24.686Z,78.21
2018-09-20T08:33:24.663Z,78.36
2018-09-20T08:34:24.648Z,78.31
2018-09-20T08:35:24.633Z,78.50
2018-09-20T08:36:24.613Z,78.40
2018-09-20T08:37:24.606Z,79.17
2018-09-20T08:38:24.585Z,78.69
2018-09-20T08:39:24.581Z,78.88
2018-09-20T08:40:24.564Z,78.21
2018-09-20T08:41:24.536Z,78.31
2018-09-20T08:42:24.523Z,77.83
2018-09-20T08:43:24.512Z,78.40
2018-09-20T08:44:24.490Z,78.02
2018-09-20T08:45:24.476Z,78.11
2018-09-20T08:46:24.460Z,78.21
2018-09-20T08:47:24.442Z,77.34
2018-09-20T08:48:24.428Z,77.67
2018-09-20T08:49:24.421Z,76.80
2018-09-20T08:50:24.399Z,76.71
2018-09-20T08:51:24.384Z,77.00
2018-09-20T08:52:24.367Z,76.61
2018-09-20T08:53:24.357Z,77.28
2018-09-20T08:54:24.336Z,77.38
2018-09-20T08:55:24.329Z,76.55
2018-09-20T08:56:24.351Z,77.03
2018-09-20T08:57:24.290Z,75.88
2018-09-20T08:58:24.285Z,75.49
2018-09-20T08:59:24.263Z,75.30
2018-09-20T09:00:24.245Z,75.01
2018-09-20T09:01:24.230Z,75.40
2018-09-20T09:02:24.215Z,75.88
2018-09-20T09:03:24.199Z,75.68
2018-09-20T09:04:24.242Z,75.49
2018-09-20T09:05:24.170Z,75.20
2018-09-20T09:06:24.153Z,74.57
2018-09-20T09:07:24.140Z,74.85
2018-09-20T09:08:24.126Z,73.99
2018-09-20T09:09:24.112Z,74.18
2018-09-20T09:10:24.093Z,73.99
2018-09-20T09:11:24.076Z,74.57
2018-09-20T09:12:24.060Z,74.18
2018-09-20T09:13:24.056Z,74.08
2018-09-20T09:14:24.033Z,74.08
2018-09-20T09:15:24.022Z,74.18
2018-09-20T09:16:24.000Z,73.99
2018-09-20T09:17:23.990Z,73.79
2018-09-20T09:18:23.971Z,72.96
2018-09-20T09:19:23.957Z,72.92
2018-09-20T09:20:23.940Z,72.67
2018-09-20T09:21:23.927Z,72.28
2018-09-20T09:22:23.913Z,72.19
2018-09-20T09:23:23.901Z,72.00
2018-09-20T09:24:23.883Z,72.09
2018-09-20T09:25:23.868Z,72.00
2018-09-20T09:26:23.852Z,72.09
2018-09-20T09:27:23.846Z,72.13
2018-09-20T09:28:23.843Z,70.97
2018-09-20T09:29:23.809Z,70.68
2018-09-20T09:30:23.794Z,70.29
2018-09-20T09:31:23.778Z,69.71
2018-09-20T09:32:23.769Z,69.81
2018-09-20T09:33:23.749Z,70.00
2018-09-20T09:34:23.736Z,69.65
2018-09-20T09:35:23.720Z,70.23
2018-09-20T09:36:23.706Z,68.49
2018-09-20T09:37:23.696Z,67.82
2018-09-20T09:38:23.679Z,67.33
2018-09-20T09:39:23.665Z,67.52
2018-09-20T09:40:23.647Z,67.24
2018-09-20T09:41:23.633Z,67.24
2018-09-20T09:42:23.620Z,68.40
2018-09-20T09:43:23.604Z,68.59
2018-09-20T09:44:23.592Z,67.62
2018-09-20T09:45:23.578Z,68.14
2018-09-20T09:46:23.562Z,67.94
2018-09-20T09:47:23.547Z,67.75
2018-09-20T09:48:23.533Z,67.56
2018-09-20T09:49:23.518Z,67.75
2018-09-20T09:50:23.504Z,68.04
2018-09-20T09:51:23.489Z,67.08
2018-09-20T09:52:23.475Z,66.98
2018-09-20T09:53:23.463Z,66.69
2018-09-20T09:54:23.509Z,66.78
2018-09-20T09:55:23.433Z,67.36
2018-09-20T09:56:23.424Z,66.98
2018-09-20T09:57:23.409Z,67.08
2018-09-20T09:58:23.393Z,66.40
2018-09-20T09:59:23.380Z,66.98
2018-09-20T10:00:23.370Z,65.92
2018-09-20T10:01:23.350Z,66.01
2018-09-20T10:02:23.371Z,65.14
2018-09-20T10:03:23.320Z,66.50
2018-09-20T10:04:23.307Z,66.01
2018-09-20T10:05:23.304Z,65.05
2018-09-20T10:06:23.280Z,65.34
2018-09-20T10:07:23.309Z,65.34
2018-09-20T10:08:23.254Z,65.92
2018-09-20T10:09:23.247Z,64.92
2018-09-20T10:10:23.224Z,65.88
2018-09-20T10:11:23.216Z,66.27
2018-09-20T10:12:23.195Z,66.36
2018-09-20T10:13:23.269Z,65.20
2018-09-20T10:14:23.170Z,64.92
2018-09-20T10:15:23.153Z,65.30
2018-09-20T10:16:23.144Z,64.92
2018-09-20T10:17:23.124Z,65.01
2018-09-20T10:18:23.110Z,65.01
2018-09-20T10:19:23.107Z,64.85
2018-09-20T10:20:23.084Z,64.95
2018-09-20T10:21:23.075Z,62.82
2018-09-20T10:22:23.056Z,62.73
2018-09-20T10:23:23.039Z,62.82
2018-09-20T10:24:23.026Z,62.63
2018-09-20T10:25:23.014Z,62.53
2018-09-20T10:26:23.009Z,62.82
2018-09-20T10:27:22.996Z,62.92
2018-09-20T10:28:22.973Z,63.02
2018-09-20T10:29:22.958Z,62.15
2018-09-20T10:30:22.940Z,62.63
2018-09-20T10:31:22.995Z,61.79
2018-09-20T10:32:22.919Z,61.50
2018-09-20T10:33:22.900Z,61.79
2018-09-20T10:34:22.884Z,61.79
2018-09-20T10:35:22.868Z,61.40
2018-09-20T10:36:22.861Z,62.18
2018-09-20T10:37:22.843Z,62.21
2018-09-20T10:38:22.827Z,61.92
2018-09-20T10:39:22.815Z,61.82
2018-09-20T10:40:22.797Z,60.95
2018-09-20T10:41:22.785Z,61.63
2018-09-20T10:42:22.774Z,61.24
2018-09-20T10:43:22.759Z,60.37
2018-09-20T10:44:22.748Z,60.08
2018-09-20T10:45:22.735Z,60.66
2018-09-20T10:46:22.715Z,61.92
2018-09-20T10:47:22.839Z,60.47
2018-09-20T10:48:22.687Z,60.37
2018-09-20T10:49:22.677Z,61.05
2018-09-20T10:50:22.669Z,60.57
2018-09-20T10:51:22.651Z,60.66
2018-09-20T10:52:22.633Z,59.79
2018-09-20T10:53:22.618Z,60.27
2018-09-20T10:54:22.608Z,60.50
2018-09-20T10:55:22.591Z,60.75
2018-09-20T10:56:22.578Z,59.69
2018-09-20T10:57:22.563Z,59.59
2018-09-20T10:58:22.554Z,60.17
2018-09-20T10:59:22.538Z,60.85
2018-09-20T11:00:22.525Z,60.75
2018-09-20T11:01:22.517Z,60.72
2018-09-20T11:02:22.500Z,60.75
2018-09-20T11:03:22.590Z,60.63
2018-09-20T11:04:22.472Z,61.69
2018-09-20T11:05:22.461Z,62.47
2018-09-20T11:06:22.443Z,62.30
2018-09-20T11:07:22.427Z,60.75
2018-09-20T11:08:22.412Z,60.59
2018-09-20T11:09:22.402Z,60.50
2018-09-20T11:10:22.391Z,59.82
2018-09-20T11:11:22.372Z,59.05
2018-09-20T11:12:22.362Z,58.17
2018-09-20T11:13:22.345Z,57.40
2018-09-20T11:14:22.331Z,57.79
2018-09-20T11:15:22.322Z,58.27
2018-09-20T11:16:22.303Z,58.37
2018-09-20T11:17:22.293Z,58.37
2018-09-20T11:18:22.276Z,57.88
2018-09-20T11:19:22.266Z,58.47
2018-09-20T11:20:22.249Z,58.27
2018-09-20T11:21:22.242Z,58.37
2018-09-20T11:22:22.222Z,58.17
2018-09-20T11:23:22.217Z,58.24
2018-09-20T11:24:22.195Z,59.14
2018-09-20T11:25:22.187Z,59.43
2018-09-20T11:26:22.168Z,59.33
2018-09-20T11:27:22.163Z,58.65
2018-09-20T11:28:22.146Z,58.72
2018-09-20T11:29:22.131Z,58.95
2018-09-20T11:30:22.116Z,58.85
2018-09-20T11:31:22.101Z,56.82
2018-09-20T11:32:22.091Z,58.07
2018-09-20T11:33:22.078Z,57.62
2018-09-20T11:34:22.068Z,57.14
2018-09-20T11:35:22.048Z,56.72
2018-09-20T11:36:22.123Z,56.72
2018-09-20T11:37:22.023Z,56.82
2018-09-20T11:38:22.012Z,57.40
2018-09-20T11:39:21.998Z,57.30
2018-09-20T11:40:21.984Z,57.50
2018-09-20T11:41:21.969Z,58.27
2018-09-20T11:42:21.957Z,58.27
2018-09-20T11:43:21.939Z,56.52
2018-09-20T11:44:21.930Z,57.11
2018-09-20T11:45:21.921Z,56.34
2018-09-20T11:46:21.902Z,56.52
2018-09-20T11:47:21.888Z,56.62
2018-09-20T11:48:21.871Z,56.92
2018-09-20T11:49:21.873Z,57.50
2018-09-20T11:50:21.847Z,57.30
2018-09-20T11:51:21.830Z,57.20
2018-09-20T11:52:21.826Z,56.82
2018-09-20T11:53:21.803Z,56.82
2018-09-20T11:54:21.792Z,56.92
2018-09-20T11:55:21.780Z,57.14
2018-09-20T11:56:21.773Z,55.78
2018-09-20T11:57:21.751Z,55.88
2018-09-20T11:58:21.739Z,55.88
2018-09-20T11:59:21.723Z,56.94
2018-09-20T12:00:21.708Z,55.78
2018-09-20T12:01:21.761Z,55.88
2018-09-20T12:02:21.681Z,55.78
2018-09-20T12:03:21.668Z,55.78
2018-09-20T12:04:21.664Z,55.49
2018-09-20T12:05:21.642Z,55.78
2018-09-20T12:06:21.631Z,55.49
2018-09-20T12:07:21.619Z,55.78
2018-09-20T12:08:21.601Z,55.88
2018-09-20T12:09:21.593Z,56.16
2018-09-20T12:10:21.586Z,55.88
2018-09-20T12:11:21.562Z,56.07
2018-09-20T12:12:21.548Z,55.98
2018-09-20T12:13:21.540Z,55.58
2018-09-20T12:14:21.571Z,55.49
2018-09-20T12:15:21.510Z,55.68
2018-09-20T12:16:21.496Z,55.40
2018-09-20T12:17:21.484Z,55.68
2018-09-20T12:18:21.471Z,55.78
2018-09-20T12:19:21.458Z,54.62
2018-09-20T12:20:21.443Z,54.52
2018-09-20T12:21:21.437Z,54.64
2018-09-20T12:22:21.417Z,54.94
2018-09-20T12:23:21.411Z,54.94
2018-09-20T12:24:21.391Z,54.16
2018-09-20T12:25:21.378Z,54.26
2018-09-20T12:26:21.366Z,52.71
2018-09-20T12:27:21.349Z,52.93
2018-09-20T12:28:21.337Z,52.25
2018-09-20T12:29:21.334Z,52.03
2018-09-20T12:30:21.316Z,51.16
2018-09-20T12:31:21.353Z,51.64
2018-09-20T12:32:21.402Z,51.64
2018-09-20T12:33:21.272Z,52.03
2018-09-20T12:34:21.260Z,52.42
2018-09-20T12:35:21.278Z,52.61
2018-09-20T12:36:21.237Z,53.09
2018-09-20T12:37:21.223Z,52.90
2018-09-20T12:38:21.206Z,53.19
2018-09-20T12:39:21.202Z,52.90
2018-09-20T12:40:21.184Z,52.12
2018-09-20T12:41:21.167Z,52.32
2018-09-20T12:42:21.165Z,52.03
2018-09-20T12:43:21.142Z,52.03
2018-09-20T12:44:21.130Z,52.22
2018-09-20T12:45:21.119Z,52.32
2018-09-20T12:46:21.101Z,51.54
2018-09-20T12:47:21.091Z,52.12
2018-09-20T12:48:21.088Z,52.12
2018-09-20T12:49:21.063Z,52.12
2018-09-20T12:50:21.049Z,51.45
2018-09-20T12:51:21.036Z,52.71
2018-09-20T12:52:21.023Z,51.96
2018-09-20T12:53:21.012Z,52.25
2018-09-20T12:54:20.998Z,51.96
2018-09-20T12:55:20.986Z,52.34